createdAt,value
2023-05-21T00:02:21.498Z,95942.77
2023-05-21T00:04:49.659Z,95937.45
2023-05-21T00:07:18.909Z,95931.98
2023-05-21T00:09:46.863Z,95931.36
2023-05-21T00:12:14.877Z,95936.14
2023-05-21T00:14:42.985Z,95933.97
2023-05-21T00:17:11.634Z,95928.52
2023-05-21T00:19:40.626Z,95927.36
2023-05-21T00:22:09.429Z,95933.96
2023-05-21T00:24:37.411Z,95933.63
2023-05-21T00:27:06.041Z,95938.09
2023-05-21T00:29:33.964Z,95932.05
2023-05-21T00:32:02.362Z,95929.68
2023-05-21T00:34:30.523Z,95929.83
2023-05-21T00:36:58.513Z,95929.16
2023-05-21T00:39:26.463Z,95927.60
2023-05-21T00:41:56.942Z,95927.23
2023-05-21T00:44:25.675Z,95922.48
2023-05-21T00:46:53.855Z,95922.45
2023-05-21T00:49:24.562Z,95925.22
2023-05-21T00:51:53.141Z,95920.43
2023-05-21T00:54:21.789Z,95909.83
2023-05-21T00:56:51.507Z,95905.08
2023-05-21T00:59:19.766Z,95906.61
2023-05-21T01:01:54.035Z,95903.08
2023-05-21T01:04:25.433Z,95898.24
2023-05-21T01:06:53.662Z,95890.94
2023-05-21T01:09:22.449Z,95886.81
2023-05-21T01:11:51.965Z,95888.33
2023-05-21T01:14:22.468Z,95888.05
2023-05-21T01:16:52.455Z,95887.64
2023-05-21T01:19:23.880Z,95887.66
2023-05-21T01:21:56.409Z,95884.39
2023-05-21T01:24:24.666Z,95876.16
2023-05-21T01:26:53.233Z,95879.30
2023-05-21T01:29:21.361Z,95870.52
2023-05-21T01:32:05.270Z,95867.93
2023-05-21T01:34:57.142Z,95867.01
2023-05-21T01:37:25.128Z,95860.84
2023-05-21T01:39:58.650Z,95859.10
2023-05-21T01:42:28.554Z,95857.59
2023-05-21T01:44:57.661Z,95854.28
2023-05-21T01:47:27.526Z,95844.67
2023-05-21T01:49:56.692Z,95839.43
2023-05-21T01:52:24.671Z,95844.08
2023-05-21T01:54:54.476Z,95837.99
2023-05-21T01:57:23.030Z,95839.44
2023-05-21T01:59:53.536Z,95841.87
2023-05-21T02:02:22.045Z,95838.09
2023-05-21T02:04:50.249Z,95842.88
2023-05-21T02:07:18.843Z,95843.18
2023-05-21T02:09:46.961Z,95840.14
2023-05-21T02:12:14.989Z,95839.80
2023-05-21T02:14:43.297Z,95840.73
2023-05-21T02:17:11.421Z,95846.64
2023-05-21T02:19:39.543Z,95846.69
2023-05-21T02:22:07.864Z,95851.14
2023-05-21T02:24:36.454Z,95850.27
2023-05-21T02:27:06.441Z,95849.48
2023-05-21T02:29:34.618Z,95845.29
2023-05-21T02:32:03.004Z,95845.71
2023-05-21T02:34:32.408Z,95844.19
2023-05-21T02:37:01.822Z,95841.07
2023-05-21T02:39:29.861Z,95840.51
2023-05-21T02:41:57.815Z,95838.83
2023-05-21T02:44:26.015Z,95834.55
2023-05-21T02:46:54.495Z,95830.95
2023-05-21T02:49:23.073Z,95829.20
2023-05-21T02:51:51.767Z,95831.81
2023-05-21T02:54:19.926Z,95832.34
2023-05-21T02:56:47.969Z,95828.20
2023-05-21T02:59:16.082Z,95824.52
2023-05-21T03:01:45.449Z,95822.45
2023-05-21T03:04:13.872Z,95822.11
2023-05-21T03:06:42.065Z,95818.39
2023-05-21T03:09:11.024Z,95817.80
2023-05-21T03:11:39.067Z,95810.80
2023-05-21T03:14:07.669Z,95811.85
2023-05-21T03:16:36.397Z,95814.91
2023-05-21T03:19:04.888Z,95817.86
2023-05-21T03:21:33.855Z,95822.41
2023-05-21T03:24:03.295Z,95826.33
2023-05-21T03:26:32.062Z,95825.25
2023-05-21T03:29:00.308Z,95825.23
2023-05-21T03:31:28.828Z,95818.67
2023-05-21T03:34:09.118Z,95820.34
2023-05-21T03:36:37.373Z,95820.17
2023-05-21T03:39:05.517Z,95826.67
2023-05-21T03:41:34.544Z,95821.59
2023-05-21T03:44:09.546Z,95824.92
2023-05-21T03:46:57.252Z,95826.28
2023-05-21T03:49:31.375Z,95829.45
2023-05-21T03:51:59.939Z,95831.54
2023-05-21T03:54:28.736Z,95834.98
2023-05-21T03:57:01.657Z,95834.75
2023-05-21T03:59:29.952Z,95840.45
2023-05-21T04:01:58.170Z,95843.14
2023-05-21T04:04:26.345Z,95843.20
2023-05-21T04:06:55.462Z,95841.57
2023-05-21T04:09:24.171Z,95837.41
2023-05-21T04:11:53.478Z,95843.28
2023-05-21T04:14:23.375Z,95848.72
2023-05-21T04:16:52.732Z,95847.05
2023-05-21T04:19:22.146Z,95846.23
2023-05-21T04:21:50.291Z,95848.54
2023-05-21T04:24:19.605Z,95848.77
2023-05-21T04:27:10.149Z,95846.52
2023-05-21T04:29:42.908Z,95843.73
2023-05-21T04:32:15.136Z,95844.67
2023-05-21T04:34:46.708Z,95844.53
2023-05-21T04:37:14.777Z,95839.33
2023-05-21T04:39:44.412Z,95838.52
2023-05-21T04:42:12.762Z,95837.16
2023-05-21T04:44:44.619Z,95833.58
2023-05-21T04:47:15.132Z,95836.33
2023-05-21T04:49:44.328Z,95829.07
2023-05-21T04:52:12.697Z,95826.83
2023-05-21T04:54:42.062Z,95822.02
2023-05-21T04:57:10.527Z,95822.35
2023-05-21T04:59:39.712Z,95824.01
2023-05-21T05:02:07.872Z,95826.23
2023-05-21T05:04:36.065Z,95821.58
2023-05-21T05:07:04.420Z,95822.81
2023-05-21T05:09:32.513Z,95823.33
2023-05-21T05:12:00.907Z,95826.33
2023-05-21T05:14:28.967Z,95824.63
2023-05-21T05:17:00.774Z,95823.44
2023-05-21T05:19:30.631Z,95823.06
2023-05-21T05:21:59.210Z,95819.70
2023-05-21T05:24:27.827Z,95816.87
2023-05-21T05:26:56.217Z,95814.59
2023-05-21T05:29:24.570Z,95814.13
2023-05-21T05:31:52.672Z,95809.09
2023-05-21T05:34:20.810Z,95810.06
2023-05-21T05:36:49.585Z,95808.31
2023-05-21T05:39:17.666Z,95803.35
2023-05-21T05:41:46.447Z,95802.58
2023-05-21T05:44:14.490Z,95805.35
2023-05-21T05:46:44.005Z,95805.05
2023-05-21T05:49:13.937Z,95799.37
2023-05-21T05:51:43.001Z,95798.45
2023-05-21T05:54:11.115Z,95800.09
2023-05-21T05:56:39.527Z,95804.77
2023-05-21T05:59:07.964Z,95801.54
2023-05-21T06:01:38.406Z,95801.36
2023-05-21T06:04:07.450Z,95795.67
2023-05-21T06:06:36.804Z,95790.65
2023-05-21T06:09:05.051Z,95778.90
2023-05-21T06:11:33.638Z,95775.63
2023-05-21T06:14:02.043Z,95768.70
2023-05-21T06:16:31.663Z,95761.84
2023-05-21T06:19:00.083Z,95757.13
2023-05-21T06:21:28.684Z,95755.86
2023-05-21T06:23:57.048Z,95751.95
2023-05-21T06:26:25.136Z,95747.27
2023-05-21T06:28:53.514Z,95748.70
2023-05-21T06:31:22.613Z,95742.54
2023-05-21T06:33:51.020Z,95742.05
2023-05-21T06:36:19.261Z,95734.05
2023-05-21T06:38:48.009Z,95734.81
2023-05-21T06:41:16.416Z,95736.98
2023-05-21T06:43:53.523Z,95735.97
2023-05-21T06:46:40.146Z,95731.61
2023-05-21T06:49:10.043Z,95730.48
2023-05-21T06:51:38.928Z,95732.20
2023-05-21T06:54:07.053Z,95727.91
2023-05-21T06:56:36.152Z,95723.59
2023-05-21T06:59:04.317Z,95726.64
2023-05-21T07:01:32.672Z,95721.64
2023-05-21T07:04:01.276Z,95720.74
2023-05-21T07:06:29.686Z,95721.70
2023-05-21T07:08:59.100Z,95720.69
2023-05-21T07:11:29.041Z,95716.95
2023-05-21T07:14:00.990Z,95715.92
2023-05-21T07:16:29.935Z,95714.61
2023-05-21T07:18:58.682Z,95715.24
2023-05-21T07:21:27.040Z,95713.07
2023-05-21T07:23:55.498Z,95713.13
2023-05-21T07:26:23.744Z,95714.09
2023-05-21T07:28:52.288Z,95712.13
2023-05-21T07:31:20.935Z,95702.77
2023-05-21T07:33:51.109Z,95702.86
2023-05-21T07:36:20.127Z,95698.65
2023-05-21T07:38:48.345Z,95700.23
2023-05-21T07:41:18.518Z,95699.37
2023-05-21T07:43:47.451Z,95690.36
2023-05-21T07:46:16.167Z,95690.27
2023-05-21T07:48:44.563Z,95689.86
2023-05-21T07:51:13.970Z,95688.37
2023-05-21T07:53:42.015Z,95683.98
2023-05-21T07:56:11.949Z,95682.01
2023-05-21T07:58:40.842Z,95681.11
2023-05-21T08:01:09.414Z,95680.98
2023-05-21T08:03:38.340Z,95680.94
2023-05-21T08:06:06.904Z,95685.56
2023-05-21T08:08:35.010Z,95678.77
2023-05-21T08:11:03.392Z,95684.65
2023-05-21T08:13:31.517Z,95683.02
2023-05-21T08:16:00.004Z,95682.31
2023-05-21T08:18:28.748Z,95681.08
2023-05-21T08:20:57.225Z,95683.58
2023-05-21T08:23:27.374Z,95681.60
2023-05-21T08:25:56.839Z,95683.30
2023-05-21T08:28:27.202Z,95676.33
2023-05-21T08:30:55.657Z,95683.36
2023-05-21T08:33:24.862Z,95682.02
2023-05-21T08:35:53.064Z,95676.10
2023-05-21T08:38:21.154Z,95682.39
2023-05-21T08:41:08.806Z,95682.18
2023-05-21T08:43:37.644Z,95678.99
2023-05-21T08:46:07.447Z,95683.39
2023-05-21T08:48:39.042Z,95680.46
2023-05-21T08:51:07.193Z,95673.73
2023-05-21T08:53:39.958Z,95673.99
2023-05-21T08:56:10.532Z,95674.08
2023-05-21T08:58:49.520Z,95672.11
2023-05-21T09:01:23.401Z,95675.08
2023-05-21T09:04:04.864Z,95674.41
2023-05-21T09:06:41.373Z,95670.78
2023-05-21T09:09:20.082Z,95674.23
2023-05-21T09:11:50.166Z,95673.18
2023-05-21T09:14:19.670Z,95678.78
2023-05-21T09:17:15.393Z,95675.45
2023-05-21T09:20:10.736Z,95675.77
2023-05-21T09:22:51.646Z,95673.45
2023-05-21T09:25:28.353Z,95672.35
2023-05-21T09:27:57.278Z,95671.69
2023-05-21T09:30:28.521Z,95665.80
2023-05-21T09:33:00.292Z,95662.85
2023-05-21T09:35:28.738Z,95667.18
2023-05-21T09:37:57.682Z,95679.56
2023-05-21T09:40:26.542Z,95673.27
2023-05-21T09:42:55.320Z,95664.66
2023-05-21T09:45:27.776Z,95666.23
2023-05-21T09:47:57.335Z,95662.25
2023-05-21T09:50:28.624Z,95656.11
2023-05-21T09:52:58.092Z,95654.05
2023-05-21T09:55:27.271Z,95651.76
2023-05-21T09:57:55.514Z,95653.30
2023-05-21T10:00:28.919Z,95648.07
2023-05-21T10:03:01.273Z,95645.58
2023-05-21T10:05:31.122Z,95643.85
2023-05-21T10:08:02.815Z,95639.82
2023-05-21T10:10:32.262Z,95647.80
2023-05-21T10:13:09.026Z,95636.45
2023-05-21T10:15:46.519Z,95629.21
2023-05-21T10:18:18.458Z,95633.95
2023-05-21T10:20:46.793Z,95628.04
2023-05-21T10:23:15.226Z,95625.98
2023-05-21T10:25:43.379Z,95629.61
2023-05-21T10:28:15.694Z,95628.71
2023-05-21T10:30:46.157Z,95625.41
2023-05-21T10:33:17.140Z,95619.98
2023-05-21T10:35:48.091Z,95614.65
2023-05-21T10:38:20.785Z,95613.96
2023-05-21T10:40:49.361Z,95615.70
2023-05-21T10:43:42.830Z,95613.62
2023-05-21T10:46:41.466Z,95614.61
2023-05-21T10:49:33.451Z,95612.37
2023-05-21T10:52:42.985Z,95606.83
2023-05-21T10:55:11.206Z,95611.48
2023-05-21T10:58:17.431Z,95609.67
2023-05-21T11:00:45.912Z,95606.55
2023-05-21T11:03:15.549Z,95605.82
2023-05-21T11:05:56.072Z,95604.23
2023-05-21T11:08:27.306Z,95603.70
2023-05-21T11:10:59.043Z,95597.59
2023-05-21T11:13:28.636Z,95604.24
2023-05-21T11:15:59.610Z,95601.41
2023-05-21T11:18:31.150Z,95598.21
2023-05-21T11:21:13.622Z,95598.25
2023-05-21T11:23:53.884Z,95593.89
2023-05-21T11:26:24.134Z,95596.64
2023-05-21T11:29:04.528Z,95595.77
2023-05-21T11:31:40.324Z,95599.10
2023-05-21T11:34:37.657Z,95596.44
2023-05-21T11:37:18.451Z,95588.60
2023-05-21T11:39:48.181Z,95595.66
2023-05-21T11:42:38.966Z,95594.05
2023-05-21T11:45:08.195Z,95585.58
2023-05-21T11:47:36.450Z,95584.02
2023-05-21T11:50:05.305Z,95580.17
2023-05-21T11:52:33.909Z,95578.14
2023-05-21T11:55:02.003Z,95573.85
2023-05-21T11:57:33.506Z,95572.47
2023-05-21T12:00:04.129Z,95572.96
2023-05-21T12:02:46.653Z,95577.54
2023-05-21T12:05:15.233Z,95580.02
2023-05-21T12:07:48.897Z,95574.14
2023-05-21T12:10:20.623Z,95570.89
2023-05-21T12:12:55.834Z,95572.22
2023-05-21T12:15:27.555Z,95567.02
2023-05-21T12:17:56.284Z,95569.79
2023-05-21T12:20:27.181Z,95569.21
2023-05-21T12:22:56.733Z,95567.80
2023-05-21T12:25:25.146Z,95565.16
2023-05-21T12:27:58.311Z,95563.25
2023-05-21T12:30:27.482Z,95559.59
2023-05-21T12:32:58.730Z,95557.27
2023-05-21T12:35:26.953Z,95546.95
2023-05-21T12:37:55.407Z,95544.13
2023-05-21T12:40:36.534Z,95544.80
2023-05-21T12:43:05.471Z,95545.27
2023-05-21T12:45:33.974Z,95540.94
2023-05-21T12:48:03.210Z,95539.77
2023-05-21T12:50:33.117Z,95532.30
2023-05-21T12:53:01.272Z,95530.63
2023-05-21T12:55:31.659Z,95525.60
2023-05-21T12:58:05.595Z,95520.59
2023-05-21T13:00:34.110Z,95519.27
2023-05-21T13:03:04.870Z,95519.58
2023-05-21T13:05:33.247Z,95510.83
2023-05-21T13:08:01.710Z,95506.52
2023-05-21T13:10:29.783Z,95508.90
2023-05-21T13:12:58.069Z,95508.54
2023-05-21T13:15:26.362Z,95507.64
2023-05-21T13:17:56.705Z,95505.60
2023-05-21T13:20:34.510Z,95499.90
2023-05-21T13:23:06.248Z,95497.27
2023-05-21T13:25:35.348Z,95497.92
2023-05-21T13:28:05.607Z,95491.98
2023-05-21T13:30:34.162Z,95491.17
2023-05-21T13:33:03.575Z,95497.69
2023-05-21T13:35:32.378Z,95501.59
2023-05-21T13:38:01.097Z,95500.05
2023-05-21T13:40:29.230Z,95504.78
2023-05-21T13:42:57.655Z,95501.19
2023-05-21T13:45:29.584Z,95502.45
2023-05-21T13:47:58.181Z,95503.08
2023-05-21T13:50:26.369Z,95504.36
2023-05-21T13:52:54.695Z,95502.04
2023-05-21T13:55:22.919Z,95504.22
2023-05-21T13:57:51.231Z,95500.77
2023-05-21T14:00:19.344Z,95500.41
2023-05-21T14:02:47.514Z,95502.05
2023-05-21T14:05:15.922Z,95501.64
2023-05-21T14:07:44.124Z,95502.72
2023-05-21T14:10:12.103Z,95499.79
2023-05-21T14:12:41.014Z,95506.85
2023-05-21T14:15:10.078Z,95496.42
2023-05-21T14:17:40.728Z,95500.00
2023-05-21T14:20:09.854Z,95503.58
2023-05-21T14:22:38.625Z,95510.84
2023-05-21T14:25:07.280Z,95511.43
2023-05-21T14:27:38.097Z,95516.89
2023-05-21T14:30:07.284Z,95510.13
2023-05-21T14:32:35.288Z,95510.72
2023-05-21T14:35:04.250Z,95508.23
2023-05-21T14:37:32.561Z,95512.35
2023-05-21T14:40:01.055Z,95505.10
2023-05-21T14:42:29.278Z,95503.46
2023-05-21T14:47:26.853Z,95495.67
2023-05-21T14:49:55.094Z,95490.24
2023-05-21T14:52:23.083Z,95490.70
2023-05-21T14:54:51.112Z,95483.17
2023-05-21T14:57:19.255Z,95480.81
2023-05-21T14:59:47.333Z,95479.02
2023-05-21T15:02:15.472Z,95481.73
2023-05-21T15:04:43.494Z,95477.91
2023-05-21T15:07:11.840Z,95480.30
2023-05-21T15:09:40.075Z,95470.86
2023-05-21T15:12:08.340Z,95468.69
2023-05-21T15:14:36.544Z,95466.46
2023-05-21T15:17:04.967Z,95465.79
2023-05-21T15:19:33.327Z,95477.75
2023-05-21T15:22:02.716Z,95477.08
2023-05-21T15:24:31.099Z,95473.02
2023-05-21T15:26:59.201Z,95471.70
2023-05-21T15:29:27.453Z,95472.66
2023-05-21T15:31:55.468Z,95470.95
2023-05-21T15:34:23.510Z,95469.21
2023-05-21T15:36:51.543Z,95461.17
2023-05-21T15:39:19.510Z,95459.36
2023-05-21T15:41:47.431Z,95457.63
2023-05-21T15:44:15.967Z,95461.88
2023-05-21T15:46:44.027Z,95466.45
2023-05-21T15:49:12.205Z,95468.33
2023-05-21T15:51:40.595Z,95470.23
2023-05-21T15:54:08.568Z,95471.27
2023-05-21T15:56:36.661Z,95470.88
2023-05-21T15:59:04.653Z,95472.95
2023-05-21T16:01:33.338Z,95482.89
2023-05-21T16:04:03.421Z,95487.30
2023-05-21T16:06:31.752Z,95491.86
2023-05-21T16:09:00.700Z,95499.67
2023-05-21T16:11:29.271Z,95505.45
2023-05-21T16:13:57.735Z,95505.75
2023-05-21T16:16:25.809Z,95507.59
2023-05-21T16:18:54.165Z,95504.94
2023-05-21T16:21:24.023Z,95507.05
2023-05-21T16:23:52.236Z,95506.28
2023-05-21T16:26:20.162Z,95505.94
2023-05-21T16:28:48.419Z,95510.58
2023-05-21T16:31:16.649Z,95503.30
2023-05-21T16:33:44.624Z,95512.74
2023-05-21T16:36:12.710Z,95512.17
2023-05-21T16:38:40.905Z,95513.15
2023-05-21T16:41:09.181Z,95518.92
2023-05-21T16:43:37.340Z,95516.70
2023-05-21T16:46:05.497Z,95516.85
2023-05-21T16:48:34.693Z,95516.27
2023-05-21T16:51:04.290Z,95517.48
2023-05-21T16:53:32.316Z,95517.54
2023-05-21T16:56:00.577Z,95519.83
2023-05-21T16:58:28.611Z,95524.45
2023-05-21T17:00:56.661Z,95528.98
2023-05-21T17:03:24.860Z,95530.82
2023-05-21T17:05:53.371Z,95533.13
2023-05-21T17:08:21.369Z,95535.00
2023-05-21T17:10:49.541Z,95535.50
2023-05-21T17:13:22.301Z,95535.36
2023-05-21T17:15:51.603Z,95537.95
2023-05-21T17:18:19.962Z,95538.06
2023-05-21T17:20:48.160Z,95543.66
2023-05-21T17:23:16.432Z,95542.11
2023-05-21T17:25:44.619Z,95542.02
2023-05-21T17:28:13.080Z,95544.75
2023-05-21T17:30:41.247Z,95543.95
2023-05-21T17:33:10.610Z,95548.23
2023-05-21T17:35:39.385Z,95548.91
2023-05-21T17:38:07.821Z,95556.97
2023-05-21T17:40:36.217Z,95557.60
2023-05-21T17:43:05.257Z,95556.30
2023-05-21T17:45:33.614Z,95555.67
2023-05-21T17:48:01.821Z,95555.30
2023-05-21T17:50:30.184Z,95553.15
2023-05-21T17:52:59.376Z,95553.63
2023-05-21T17:55:27.372Z,95554.52
2023-05-21T17:57:55.684Z,95555.67
2023-05-21T18:00:23.912Z,95554.64
2023-05-21T18:02:51.957Z,95552.50
2023-05-21T18:05:20.711Z,95557.08
2023-05-21T18:07:48.692Z,95558.36
2023-05-21T18:10:16.736Z,95556.81
2023-05-21T18:12:46.490Z,95560.31
2023-05-21T18:15:15.634Z,95561.45
2023-05-21T18:17:44.165Z,95560.47
2023-05-21T18:20:13.216Z,95562.36
2023-05-21T18:22:41.206Z,95562.79
2023-05-21T18:25:10.408Z,95565.33
2023-05-21T18:27:38.862Z,95567.71
2023-05-21T18:30:08.386Z,95565.30
2023-05-21T18:32:39.287Z,95571.70
2023-05-21T18:35:10.929Z,95572.90
2023-05-21T18:37:42.219Z,95575.80
2023-05-21T18:40:12.063Z,95583.34
2023-05-21T18:42:40.913Z,95582.79
2023-05-21T18:45:10.393Z,95586.20
2023-05-21T18:47:40.362Z,95591.45
2023-05-21T18:50:13.153Z,95590.76
2023-05-21T18:52:42.003Z,95595.71
2023-05-21T18:55:10.641Z,95594.76
2023-05-21T18:57:39.536Z,95598.10
2023-05-21T19:00:09.819Z,95609.70
2023-05-21T19:02:38.340Z,95610.31
2023-05-21T19:05:07.853Z,95612.14
2023-05-21T19:07:36.524Z,95611.70
2023-05-21T19:10:05.279Z,95612.56
2023-05-21T19:12:36.159Z,95614.42
2023-05-21T19:15:05.002Z,95614.91
2023-05-21T19:17:35.090Z,95612.40
2023-05-21T19:20:05.568Z,95614.71
2023-05-21T19:22:34.531Z,95616.23
2023-05-21T19:25:03.546Z,95617.23
2023-05-21T19:27:31.955Z,95615.59
2023-05-21T19:30:00.088Z,95619.72
2023-05-21T19:32:28.153Z,95621.12
2023-05-21T19:34:57.464Z,95618.98
2023-05-21T19:37:26.352Z,95621.58
2023-05-21T19:39:54.392Z,95623.55
2023-05-21T19:42:22.379Z,95616.33
2023-05-21T19:44:50.572Z,95616.10
2023-05-21T19:47:18.585Z,95618.23
2023-05-21T19:49:46.632Z,95613.52
2023-05-21T19:52:14.861Z,95612.94
2023-05-21T19:54:43.068Z,95614.06
2023-05-21T19:57:13.575Z,95616.26
2023-05-21T19:59:41.622Z,95618.72
2023-05-21T20:02:12.452Z,95615.23
2023-05-21T20:04:40.545Z,95619.86
2023-05-21T20:07:09.064Z,95625.16
2023-05-21T20:09:37.307Z,95630.49
2023-05-21T20:12:06.023Z,95630.77
2023-05-21T20:14:34.484Z,95626.60
2023-05-21T20:17:02.890Z,95625.91
2023-05-21T20:19:32.664Z,95626.79
2023-05-21T20:22:01.082Z,95627.36
2023-05-21T20:24:29.223Z,95624.89
2023-05-21T20:26:57.766Z,95620.70
2023-05-21T20:29:25.966Z,95619.83
2023-05-21T20:31:54.239Z,95618.39
2023-05-21T20:34:22.488Z,95623.77
2023-05-21T20:36:50.524Z,95618.77
2023-05-21T20:39:22.093Z,95621.52
2023-05-21T20:41:50.422Z,95615.67
2023-05-21T20:44:18.431Z,95621.59
2023-05-21T20:46:46.477Z,95619.66
2023-05-21T20:49:15.480Z,95617.13
2023-05-21T20:51:43.869Z,95615.84
2023-05-21T20:54:11.854Z,95614.06
2023-05-21T20:56:42.682Z,95613.86
2023-05-21T20:59:12.195Z,95615.15
2023-05-21T21:01:41.444Z,95613.04
2023-05-21T21:04:09.917Z,95613.37
2023-05-21T21:06:38.706Z,95615.48
2023-05-21T21:09:06.938Z,95618.23
2023-05-21T21:11:35.378Z,95618.30
2023-05-21T21:14:03.758Z,95620.83
2023-05-21T21:16:31.766Z,95628.85
2023-05-21T21:18:59.877Z,95626.58
2023-05-21T21:21:28.694Z,95629.66
2023-05-21T21:23:57.566Z,95627.84
2023-05-21T21:26:26.678Z,95633.22
2023-05-21T21:28:56.346Z,95636.59
2023-05-21T21:31:25.006Z,95643.87
2023-05-21T21:33:53.407Z,95644.51
2023-05-21T21:36:21.944Z,95649.55
2023-05-21T21:38:49.986Z,95651.39
2023-05-21T21:41:19.636Z,95653.95
2023-05-21T21:43:48.086Z,95660.70
2023-05-21T21:46:16.355Z,95669.27
2023-05-21T21:48:44.739Z,95676.54
2023-05-21T21:51:14.343Z,95676.61
2023-05-21T21:53:42.921Z,95675.42
2023-05-21T21:56:11.382Z,95677.01
2023-05-21T21:58:39.774Z,95681.73
2023-05-21T22:01:07.909Z,95680.05
2023-05-21T22:03:36.286Z,95673.42
2023-05-21T22:06:04.776Z,95674.64
2023-05-21T22:08:32.868Z,95673.91
2023-05-21T22:11:02.120Z,95677.16
2023-05-21T22:13:30.233Z,95677.83
2023-05-21T22:15:58.428Z,95674.54
2023-05-21T22:18:39.469Z,95673.56
2023-05-21T22:21:10.630Z,95676.20
2023-05-21T22:23:39.112Z,95673.80
2023-05-21T22:26:07.607Z,95672.58
2023-05-21T22:28:36.180Z,95673.56
2023-05-21T22:31:04.953Z,95678.51
2023-05-21T22:33:33.224Z,95676.84
2023-05-21T22:36:01.370Z,95678.88
2023-05-21T22:38:29.535Z,95674.66
2023-05-21T22:40:57.527Z,95676.23
2023-05-21T22:43:26.672Z,95671.23
2023-05-21T22:45:54.833Z,95671.60
2023-05-21T22:48:22.829Z,95669.06
2023-05-21T22:50:53.648Z,95663.24
2023-05-21T22:53:23.429Z,95663.92
2023-05-21T22:55:51.363Z,95658.80
2023-05-21T22:58:19.599Z,95654.41
2023-05-21T23:00:48.297Z,95664.48
2023-05-21T23:03:16.875Z,95665.45
2023-05-21T23:05:45.648Z,95667.89
2023-05-21T23:08:14.646Z,95668.70
2023-05-21T23:10:42.885Z,95666.06
2023-05-21T23:13:13.046Z,95658.61
2023-05-21T23:15:43.830Z,95657.19
2023-05-21T23:18:12.609Z,95653.49
2023-05-21T23:20:41.305Z,95658.19
2023-05-21T23:23:10.551Z,95655.42
2023-05-21T23:25:38.564Z,95655.90
2023-05-21T23:28:06.644Z,95654.63
2023-05-21T23:30:34.693Z,95656.98
2023-05-21T23:33:03.067Z,95658.32
2023-05-21T23:35:31.165Z,95657.33
2023-05-21T23:37:59.214Z,95653.82
2023-05-21T23:40:27.204Z,95651.43
2023-05-21T23:42:55.298Z,95650.62
2023-05-21T23:45:23.701Z,95649.39
2023-05-21T23:47:52.759Z,95649.30
2023-05-21T23:50:20.724Z,95649.63
2023-05-21T23:52:48.852Z,95647.55
2023-05-21T23:55:16.983Z,95642.88
2023-05-21T23:57:45.421Z,95641.88
